createdAt,value
2019-03-01T00:02:48.685Z,13.68
2019-03-01T00:06:13.178Z,19.60
2019-03-01T00:09:35.749Z,14.73
2019-03-01T00:13:01.770Z,15.65
2019-03-01T00:16:18.500Z,16.85
2019-03-01T00:19:49.219Z,20.77
2019-03-01T00:23:04.197Z,17.00
2019-03-01T00:26:31.940Z,15.13
2019-03-01T00:30:06.402Z,14.18
2019-03-01T00:33:15.977Z,16.57
2019-03-01T00:36:36.630Z,14.93
2019-03-01T00:39:44.648Z,17.45
2019-03-01T00:42:50.255Z,15.83
2019-03-01T00:45:39.571Z,15.65
2019-03-01T00:48:28.530Z,17.27
2019-03-01T00:51:18.215Z,17.30
2019-03-01T00:59:44.446Z,16.73
2019-03-01T01:02:33.764Z,21.37
2019-03-01T01:05:23.050Z,19.63
2019-03-01T01:08:12.284Z,19.00
2019-03-01T01:13:49.710Z,16.70
2019-03-01T01:25:03.612Z,19.40
2019-03-01T01:36:18.015Z,22.90
2019-03-01T01:55:58.613Z,23.35
2019-03-01T01:58:48.183Z,22.40
2019-03-01T02:04:25.265Z,24.05
2019-03-01T02:21:15.902Z,21.40
2019-03-01T02:29:45.133Z,25.80
2019-03-01T02:35:27.548Z,23.30
2019-03-01T02:38:17.045Z,24.90
2019-03-01T02:41:05.593Z,21.10
2019-03-01T02:43:54.154Z,21.70
2019-03-01T02:46:43.639Z,21.75
2019-03-01T02:49:32.895Z,22.60
2019-03-01T02:52:21.938Z,22.30
2019-03-01T02:55:17.174Z,20.15
2019-03-01T06:31:28.947Z,11.00
2019-03-01T06:37:47.532Z,13.07
2019-03-01T06:41:21.921Z,12.45
2019-03-01T06:44:40.611Z,10.98
2019-03-01T06:47:45.606Z,10.55
2019-03-01T06:50:36.032Z,11.30
2019-03-01T06:53:25.135Z,11.85
2019-03-01T06:59:02.219Z,10.43
2019-03-01T07:10:16.003Z,9.90
2019-03-01T07:29:56.401Z,10.80
2019-03-01T07:35:33.707Z,10.93
2019-03-01T07:38:23.068Z,9.80
2019-03-01T07:46:52.895Z,9.30
2019-03-01T07:55:15.033Z,6.90
2019-03-01T08:03:42.158Z,4.55
2019-03-01T08:17:46.026Z,5.00
2019-03-01T08:20:35.052Z,5.00
2019-03-01T08:23:24.531Z,4.45
2019-03-01T08:26:13.267Z,4.80
2019-03-01T08:31:52.746Z,5.40
2019-03-01T08:34:41.093Z,5.40
2019-03-01T08:37:30.247Z,5.55
2019-03-01T08:40:19.723Z,5.42
2019-03-01T08:43:13.067Z,6.08
2019-03-01T08:45:58.988Z,5.80
2019-03-01T08:48:48.333Z,5.67
2019-03-01T08:51:38.320Z,5.58
2019-03-01T08:54:27.928Z,5.40
2019-03-01T08:57:17.152Z,5.60
2019-03-01T09:00:29.505Z,4.85
2019-03-01T09:03:41.657Z,5.10
2019-03-01T09:06:30.676Z,6.00
2019-03-01T09:09:20.969Z,6.62
2019-03-01T09:12:11.740Z,6.12
2019-03-01T09:15:04.534Z,7.45
2019-03-01T09:17:51.948Z,7.10
2019-03-01T09:20:40.746Z,5.87
2019-03-01T09:23:29.460Z,5.28
2019-03-01T09:26:20.126Z,5.72
2019-03-01T09:29:13.024Z,4.90
2019-03-01T09:32:00.038Z,5.35
2019-03-01T09:34:51.044Z,6.03
2019-03-01T09:37:40.214Z,5.22
2019-03-01T09:40:29.709Z,5.00
2019-03-01T09:43:18.979Z,4.95
2019-03-01T09:46:08.123Z,4.97
2019-03-01T09:48:57.516Z,5.42
2019-03-01T09:51:49.171Z,4.92
2019-03-01T09:54:37.163Z,5.30
2019-03-01T09:57:26.462Z,6.15
2019-03-01T10:00:35.303Z,6.30
2019-03-01T10:03:24.917Z,6.08
2019-03-01T10:06:14.213Z,7.80
2019-03-01T10:09:04.631Z,4.10
2019-03-01T10:11:54.076Z,4.40
2019-03-01T10:14:43.069Z,3.20
2019-03-01T10:17:32.609Z,2.98
2019-03-01T10:20:21.814Z,3.75
2019-03-01T10:23:11.359Z,3.92
2019-03-01T10:26:00.330Z,3.00
2019-03-01T10:28:49.789Z,2.15
2019-03-01T11:33:22.303Z,3.00
2019-03-01T11:39:01.665Z,2.90
2019-03-01T11:55:57.452Z,3.00
2019-03-01T16:43:25.398Z,7.80
2019-03-01T16:49:00.477Z,3.65
2019-03-01T16:51:50.675Z,5.85
2019-03-01T16:57:28.575Z,3.37
2019-03-01T17:00:20.854Z,6.55
2019-03-01T17:03:18.015Z,2.70
2019-03-01T17:08:54.291Z,7.08
2019-03-01T17:11:43.979Z,9.10
2019-03-01T17:14:34.879Z,8.70
2019-03-01T17:17:24.070Z,3.22
2019-03-01T17:20:14.968Z,6.47
2019-03-01T17:23:04.256Z,7.97
2019-03-01T17:25:53.394Z,3.25
2019-03-01T17:28:42.906Z,7.47
2019-03-01T17:31:32.549Z,8.15
2019-03-01T17:34:21.855Z,2.80
2019-03-01T17:37:12.054Z,4.53
2019-03-01T17:40:01.058Z,6.47
2019-03-01T17:42:53.278Z,10.98
2019-03-01T17:45:40.839Z,4.55
2019-03-01T17:48:30.293Z,6.37
2019-03-01T17:51:21.090Z,8.60
2019-03-01T17:54:10.693Z,6.45
2019-03-01T17:56:59.966Z,3.87
2019-03-01T17:59:49.390Z,18.50
2019-03-01T18:02:38.735Z,7.37
2019-03-01T18:05:27.855Z,6.85
2019-03-01T18:08:17.554Z,11.45
2019-03-01T18:11:08.575Z,8.50
2019-03-01T18:14:00.637Z,5.45
2019-03-01T18:16:48.246Z,6.85
2019-03-01T18:19:37.191Z,8.85
2019-03-01T18:22:27.624Z,6.65
2019-03-01T18:25:19.139Z,5.83
2019-03-01T18:28:08.804Z,4.28
2019-03-01T18:30:58.167Z,6.00
2019-03-01T18:33:47.638Z,3.30
2019-03-01T18:36:37.332Z,9.85
2019-03-01T18:39:26.888Z,5.70
2019-03-01T18:42:15.879Z,8.60
2019-03-01T18:45:08.577Z,6.80
2019-03-01T18:47:57.877Z,6.58
2019-03-01T18:50:47.530Z,8.90
2019-03-01T18:53:36.622Z,4.37
2019-03-01T18:56:28.722Z,3.10
2019-03-01T18:59:16.167Z,5.72
2019-03-01T19:02:05.467Z,9.33
2019-03-01T19:04:54.265Z,9.93
2019-03-01T19:07:43.586Z,7.30
2019-03-01T19:10:32.918Z,3.72
2019-03-01T19:13:24.418Z,5.97
2019-03-01T19:16:13.523Z,3.37
2019-03-01T19:19:02.062Z,2.22
2019-03-01T19:21:52.657Z,3.50
2019-03-01T19:24:43.309Z,3.90
2019-03-01T19:27:32.155Z,5.47
2019-03-01T19:30:23.975Z,7.20
2019-03-01T19:33:13.353Z,4.40
2019-03-01T19:36:03.560Z,12.98
2019-03-01T19:38:56.785Z,11.25
2019-03-01T19:41:44.851Z,7.22
2019-03-01T19:44:33.945Z,5.25
2019-03-01T19:47:23.660Z,3.87
2019-03-01T19:50:29.093Z,4.40
2019-03-01T19:53:21.606Z,5.70
2019-03-01T19:56:08.854Z,10.85
2019-03-01T19:58:59.370Z,3.83
2019-03-01T20:01:49.396Z,15.60
2019-03-01T20:04:40.110Z,8.70
2019-03-01T20:07:29.470Z,6.35
2019-03-01T20:10:19.361Z,7.65
2019-03-01T20:13:09.035Z,3.58
2019-03-01T20:15:58.328Z,4.53
2019-03-01T20:18:48.002Z,19.23
2019-03-01T20:21:36.955Z,8.48
2019-03-01T20:24:26.110Z,3.37
2019-03-01T20:27:14.983Z,6.40
2019-03-01T20:30:06.285Z,5.72
2019-03-01T20:32:55.968Z,23.38
2019-03-01T20:35:44.810Z,7.30
2019-03-01T20:38:37.105Z,17.20
2019-03-01T20:41:25.400Z,14.07
2019-03-01T20:44:18.541Z,7.92
2019-03-01T20:47:05.423Z,6.70
2019-03-01T20:49:54.250Z,12.60
2019-03-01T20:52:43.620Z,6.78
2019-03-01T20:55:33.057Z,12.68
2019-03-01T20:58:23.695Z,6.37
2019-03-01T21:01:14.475Z,6.83
2019-03-01T21:04:04.862Z,10.55
2019-03-01T21:06:54.993Z,4.15
2019-03-01T21:09:43.735Z,5.40
2019-03-01T21:12:33.499Z,12.78
2019-03-01T21:15:23.301Z,11.85
2019-03-01T21:18:12.779Z,4.70
2019-03-01T21:21:01.552Z,11.15
2019-03-01T21:23:51.818Z,10.38
2019-03-01T21:26:41.320Z,5.33
2019-03-01T21:29:30.366Z,6.03
2019-03-01T21:32:19.178Z,4.90
2019-03-01T21:35:10.476Z,6.00
2019-03-01T21:37:59.712Z,5.92
2019-03-01T21:40:49.169Z,4.20
2019-03-01T21:43:38.759Z,6.50
2019-03-01T21:46:30.454Z,5.37
2019-03-01T21:49:19.764Z,10.88
2019-03-01T21:52:08.786Z,6.15
2019-03-01T21:54:58.298Z,3.58
2019-03-01T21:57:46.820Z,6.45
2019-03-01T22:00:36.117Z,6.37
2019-03-01T22:03:28.000Z,10.60
2019-03-01T22:06:16.055Z,4.00
2019-03-01T22:09:06.724Z,9.35
2019-03-01T22:11:55.561Z,6.20
2019-03-01T22:14:45.755Z,8.75
2019-03-01T22:17:35.606Z,4.45
2019-03-01T22:20:25.207Z,5.08
2019-03-01T22:23:15.650Z,4.70
2019-03-01T22:26:05.595Z,4.62
2019-03-01T22:28:54.549Z,4.12
2019-03-01T22:31:43.640Z,6.53
2019-03-01T22:34:32.786Z,3.55
2019-03-01T22:37:24.740Z,3.17
2019-03-01T22:40:13.159Z,5.12
2019-03-01T22:43:02.867Z,3.25
2019-03-01T22:45:52.307Z,3.85
2019-03-01T22:48:47.364Z,4.53
2019-03-01T22:51:32.160Z,3.87
2019-03-01T22:54:21.654Z,4.30
2019-03-01T22:57:10.467Z,6.60
2019-03-01T23:00:00.009Z,5.28
2019-03-01T23:02:49.417Z,3.37
2019-03-01T23:05:39.366Z,4.10
2019-03-01T23:08:31.675Z,3.67
2019-03-01T23:11:20.447Z,4.72
2019-03-01T23:14:09.615Z,3.20
2019-03-01T23:16:58.746Z,3.50
2019-03-01T23:19:51.664Z,3.60
2019-03-01T23:22:38.749Z,3.70
2019-03-01T23:25:28.122Z,5.03
2019-03-01T23:28:17.301Z,4.30
2019-03-01T23:31:06.871Z,3.37
2019-03-01T23:33:55.336Z,2.98
2019-03-01T23:36:44.283Z,3.95
2019-03-01T23:39:33.146Z,3.70
2019-03-01T23:42:22.829Z,3.30
2019-03-01T23:45:13.729Z,3.65
2019-03-01T23:48:02.586Z,13.95
2019-03-01T23:50:52.270Z,3.15
2019-03-01T23:53:41.534Z,2.77
2019-03-01T23:56:30.917Z,3.80
2019-03-01T23:59:20.143Z,4.70
